Aérodrome :
LOGIN :

S'inscrire | Disclaimer

   EN    FR    IT 

 










Légende :    VFR   VFR Marginal   IFR   IFR Intensif   IFR Très Intensif
Visi : 
Plafond : 
>= 8 km
>= 3000ft
5 à 8 km
1000 à 3000 ft
1500m à 5 km
500 à 1000 ft
800 à 1500m
200 à 500 ft
< 800m
< 200 ft
Symboles :   Orages  Brouillard  Fortes neiges  Fortes précipitations  Vent > 20 kt
SIGMETs :   Divers  Orages  Givrage  Turbulence  Onde Orograph.  Cendres Volcan.







- Altitude de l'aérodrome : 1470 ft


LSMD - Dubendorf Military

DERNIER METAR :
  • 221420Z VRB02KT 9000 OVC016 M00/M04 Q1006 RMK WHT

METARs EXPIRÉS :
  • 221350Z 11003KT 080V160 9000 OVC016 M00/M04 Q1007 RMK WHT
  • 221320Z VRB02KT 9000 OVC016 M01/M04 Q1008 RMK WHT
  • 221250Z VRB03KT 9000 OVC016 M01/M04 Q1008 RMK WHT
  • 221220Z VRB02KT 8000 OVC016 M01/M04 Q1009 RMK WHT
  • 221150Z VRB04KT 7000 OVC016 M01/M04 Q1010 RMK WHT

Prévision TAF périmée.
Pas de NOTAMs connus pour ce terrain.



MET'MAP, la Météo Aéronautique d'un coup d'oeil ! - Copyright ORBIFLY Décembre 2007 - Disclaimer

ORBIFLY MET'MAP TEAM :

Programmation & Développement : Alexandra Zaïnal
Conception & Développement : Baudouin d'Aumeries
Co-Programmation & Développement : Marc-Olivier Méhu
Soutien technique & logistique : Manuel Goepfert

Contact : metmap@orbifly.com




SOURCES & CREDITS :

   NOAA